Time;durP1;ratioP1;P1;durP2;ratioP2;P2;SDS_P1;SDS_P2;PMS_P1;PMS_P2;Temp;Humidity;BMP_temperature;BMP_pressure;BME280_temperature;BME280_humidity;BME280_pressure;Samples;Min_cycle;Max_cycle;Signal;HPM_P1;HPM_P2
2022/01/11 00:00:25;;;;;;;3.20;3.00;;;18.60;39.80;;;;;;5020425;28;20423;-66
2022/01/11 00:02:54;;;;;;;3.13;2.93;;;18.60;39.80;;;;;;5017039;28;20804;-66
2022/01/11 00:07:46;;;;;;;3.60;3.40;;;18.60;39.80;;;;;;5021558;28;20487;-66
2022/01/11 00:10:20;;;;;;;3.27;3.00;;;18.60;39.80;;;;;;5021824;28;20452;-66
2022/01/11 00:12:46;;;;;;;3.37;3.17;;;18.60;40.60;;;;;;5023193;28;20227;-66
2022/01/11 00:15:11;;;;;;;3.60;3.30;;;18.60;39.80;;;;;;5022038;28;20464;-66
2022/01/11 00:17:37;;;;;;;3.43;3.13;;;18.60;39.80;;;;;;5019690;28;20223;-67
2022/01/11 00:20:04;;;;;;;3.63;3.43;;;18.60;39.80;;;;;;5015939;28;20231;-67
2022/01/11 00:22:33;;;;;;;3.23;3.03;;;18.60;39.80;;;;;;5021268;28;20315;-66
2022/01/11 00:25:00;;;;;;;3.63;3.43;;;18.60;39.80;;;;;;5022075;28;20435;-67
2022/01/11 00:27:26;;;;;;;3.13;2.93;;;18.60;39.80;;;;;;5022896;28;20439;-68
2022/01/11 00:29:55;;;;;;;3.37;3.17;;;18.60;40.60;;;;;;5017178;28;20514;-67
2022/01/11 00:32:32;;;;;;;3.27;3.07;;;18.60;39.80;;;;;;5020255;28;20226;-67
2022/01/11 00:34:58;;;;;;;3.47;3.27;;;18.60;39.80;;;;;;5018395;28;20455;-67
2022/01/11 00:37:25;;;;;;;3.10;2.90;;;18.60;39.80;;;;;;5028176;28;20499;-66
2022/01/11 00:39:52;;;;;;;3.60;3.40;;;18.60;39.80;;;;;;5016110;28;20530;-66
2022/01/11 00:42:21;;;;;;;2.97;2.77;;;18.60;39.80;;;;;;5022433;28;20447;-66
2022/01/11 00:44:47;;;;;;;3.20;3.00;;;18.60;39.70;;;;;;5019637;28;20443;-66
2022/01/11 00:47:13;;;;;;;3.17;2.97;;;18.60;39.70;;;;;;5018061;28;20415;-66
2022/01/11 00:49:40;;;;;;;3.37;3.17;;;18.60;39.70;;;;;;5022176;28;20644;-66
2022/01/11 00:52:06;;;;;;;3.40;3.20;;;18.60;39.70;;;;;;5018442;28;20491;-66
2022/01/11 00:54:32;;;;;;;3.00;2.80;;;18.60;39.70;;;;;;5019525;28;21128;-66
2022/01/11 00:56:58;;;;;;;3.33;3.13;;;18.60;39.70;;;;;;5020502;28;20451;-66
2022/01/11 00:59:23;;;;;;;3.40;3.20;;;18.60;39.80;;;;;;5025013;28;20239;-66
2022/01/11 01:01:49;;;;;;;3.30;3.10;;;18.60;39.80;;;;;;5020491;28;20212;-66
2022/01/11 01:04:15;;;;;;;3.20;3.00;;;18.60;39.80;;;;;;5021254;28;20215;-66
2022/01/11 01:06:42;;;;;;;3.50;3.30;;;18.60;39.80;;;;;;5017881;28;20602;-66
2022/01/11 01:09:08;;;;;;;2.90;2.70;;;18.60;39.80;;;;;;5018116;28;20452;-66
2022/01/11 01:11:33;;;;;;;3.50;3.30;;;18.60;39.80;;;;;;5016922;28;20436;-67
2022/01/11 01:13:59;;;;;;;3.97;3.57;;;18.60;39.80;;;;;;5019939;28;20427;-66
2022/01/11 01:16:25;;;;;;;3.07;2.90;;;18.60;39.80;;;;;;5018904;28;20216;-66
2022/01/11 01:18:51;;;;;;;3.60;3.40;;;18.60;39.80;;;;;;5018164;28;20428;-66
2022/01/11 01:21:17;;;;;;;3.40;3.20;;;18.60;39.80;;;;;;5019911;28;20307;-66
2022/01/11 01:23:43;;;;;;;3.37;3.17;;;18.60;39.80;;;;;;5019499;28;20226;-66
2022/01/11 01:26:09;;;;;;;3.07;2.87;;;18.60;39.80;;;;;;5018749;28;20535;-66
2022/01/11 01:28:35;;;;;;;3.00;2.90;;;18.60;39.80;;;;;;5022024;28;20476;-66
2022/01/11 01:31:01;;;;;;;3.40;3.20;;;18.50;39.70;;;;;;5019067;28;20230;-66
2022/01/11 01:33:29;;;;;;;3.20;3.00;;;18.60;39.80;;;;;;5023353;28;20969;-66
2022/01/11 01:36:01;;;;;;;3.00;2.80;;;18.60;39.80;;;;;;5016034;28;20511;-66
2022/01/11 01:38:28;;;;;;;3.33;3.13;;;18.60;39.80;;;;;;5022120;28;20515;-66
2022/01/11 01:41:00;;;;;;;3.20;3.00;;;18.60;39.80;;;;;;5015773;28;20447;-66
2022/01/11 01:43:26;;;;;;;3.23;3.03;;;18.60;39.80;;;;;;5018846;28;20470;-66
2022/01/11 01:45:53;;;;;;;3.33;3.13;;;18.50;39.70;;;;;;5022090;28;20510;-66
2022/01/11 01:48:18;;;;;;;2.97;2.77;;;18.60;39.80;;;;;;5015920;28;20232;-66
2022/01/11 01:50:44;;;;;;;3.17;2.97;;;18.50;39.60;;;;;;5017324;28;20453;-66
2022/01/11 01:53:12;;;;;;;3.30;3.10;;;18.50;39.60;;;;;;5018530;28;20219;-67
2022/01/11 01:55:43;;;;;;;2.90;2.70;;;18.50;39.60;;;;;;5017041;28;20600;-66
2022/01/11 01:58:10;;;;;;;3.07;2.87;;;18.50;39.60;;;;;;5023565;28;20441;-66
2022/01/11 02:00:45;;;;;;;4.00;3.80;;;18.50;39.60;;;;;;5019528;28;20471;-67
2022/01/11 02:03:14;;;;;;;3.37;3.17;;;18.50;39.60;;;;;;5021850;28;20438;-67
2022/01/11 02:05:41;;;;;;;3.07;2.87;;;18.60;39.60;;;;;;5019371;28;20926;-66
2022/01/11 02:08:08;;;;;;;3.20;3.00;;;18.60;39.60;;;;;;5014748;28;20454;-66
2022/01/11 02:10:37;;;;;;;3.27;3.07;;;18.50;39.50;;;;;;5018849;28;20461;-67
2022/01/11 02:13:05;;;;;;;3.23;3.03;;;18.50;39.50;;;;;;5048607;28;20793;-67
2022/01/11 02:15:31;;;;;;;3.30;3.10;;;18.50;39.50;;;;;;5018982;28;21011;-67
2022/01/11 02:18:10;;;;;;;3.20;3.00;;;18.50;39.50;;;;;;5019333;28;20486;-67
2022/01/11 02:20:38;;;;;;;2.83;2.70;;;18.60;39.60;;;;;;5016823;28;20540;-66
2022/01/11 02:23:04;;;;;;;3.50;3.30;;;18.60;39.60;;;;;;5022018;28;20427;-66
2022/01/11 02:25:29;;;;;;;3.40;3.20;;;18.50;40.30;;;;;;5018493;28;20824;-66
2022/01/11 02:27:55;;;;;;;4.00;3.80;;;18.50;39.50;;;;;;5018958;28;21637;-67
2022/01/11 02:30:20;;;;;;;3.37;3.17;;;18.60;39.60;;;;;;5018833;28;20723;-66
2022/01/11 02:32:52;;;;;;;2.73;2.57;;;18.50;39.50;;;;;;5050476;28;20673;-67
2022/01/11 02:35:18;;;;;;;3.90;3.50;;;18.60;39.60;;;;;;5015703;28;20626;-67
2022/01/11 02:37:44;;;;;;;3.50;3.30;;;18.50;39.50;;;;;;5019357;28;20411;-67
2022/01/11 02:40:13;;;;;;;3.37;3.17;;;18.50;39.40;;;;;;5022733;28;20227;-67
2022/01/11 02:42:38;;;;;;;3.33;3.13;;;18.60;39.60;;;;;;5016626;28;20476;-67
2022/01/11 02:45:15;;;;;;;3.47;3.27;;;18.60;39.50;;;;;;5017502;28;20457;-67
2022/01/11 02:47:41;;;;;;;3.27;3.07;;;18.50;39.40;;;;;;5019674;28;20663;-67
2022/01/11 02:50:08;;;;;;;4.00;3.70;;;18.50;39.40;;;;;;5036071;28;20989;-67
2022/01/11 02:52:34;;;;;;;3.97;3.77;;;18.50;39.40;;;;;;5019019;28;20454;-67
2022/01/11 02:55:00;;;;;;;3.70;3.40;;;18.50;39.40;;;;;;5023282;28;20926;-67
2022/01/11 02:57:26;;;;;;;3.77;3.47;;;18.50;39.40;;;;;;5020449;28;20310;-66
2022/01/11 02:59:52;;;;;;;3.60;3.40;;;18.50;39.40;;;;;;5016888;28;20572;-67
2022/01/11 03:02:17;;;;;;;3.93;3.73;;;18.50;39.40;;;;;;5047610;28;20219;-67
2022/01/11 03:04:44;;;;;;;4.13;3.90;;;18.50;39.40;;;;;;5019046;28;20214;-67
2022/01/11 03:07:10;;;;;;;3.33;3.13;;;18.50;39.40;;;;;;5023249;28;20220;-68
2022/01/11 03:09:53;;;;;;;3.30;3.10;;;18.50;39.40;;;;;;5021376;28;20463;-67
2022/01/11 03:12:22;;;;;;;4.00;3.80;;;18.50;39.40;;;;;;5020575;28;20564;-67
2022/01/11 03:14:48;;;;;;;3.40;3.20;;;18.50;39.50;;;;;;5022011;28;20499;-67
2022/01/11 03:17:14;;;;;;;3.20;3.00;;;18.50;39.40;;;;;;5023780;28;20596;-67
2022/01/11 03:19:39;;;;;;;3.77;3.57;;;18.50;39.40;;;;;;5020482;28;20734;-67
2022/01/11 03:22:05;;;;;;;3.47;3.27;;;18.50;39.40;;;;;;5019949;28;20235;-67
2022/01/11 03:24:30;;;;;;;3.30;3.10;;;18.50;39.40;;;;;;5022544;28;20219;-67
2022/01/11 03:26:56;;;;;;;3.33;3.13;;;18.50;39.40;;;;;;5024371;28;20242;-67
2022/01/11 03:29:22;;;;;;;3.33;3.13;;;18.50;39.40;;;;;;5021038;28;20232;-67
2022/01/11 03:31:47;;;;;;;3.57;3.37;;;18.50;39.40;;;;;;5022222;28;20723;-67
2022/01/11 03:34:18;;;;;;;3.63;3.43;;;18.50;39.40;;;;;;5021065;28;20314;-67
2022/01/11 03:36:44;;;;;;;4.00;3.80;;;18.50;39.40;;;;;;5021197;28;20228;-67
2022/01/11 03:39:09;;;;;;;3.67;3.47;;;18.50;39.40;;;;;;5021374;28;21030;-67
2022/01/11 03:41:35;;;;;;;3.87;3.67;;;18.50;39.40;;;;;;5024370;28;20914;-67
2022/01/11 03:44:00;;;;;;;3.60;3.40;;;18.50;39.50;;;;;;5022997;28;20334;-67
2022/01/11 03:46:26;;;;;;;3.50;3.30;;;18.50;39.40;;;;;;5020906;28;20299;-67
2022/01/11 03:48:52;;;;;;;3.20;3.00;;;18.50;39.50;;;;;;5017254;28;20610;-67
2022/01/11 03:51:17;;;;;;;3.73;3.53;;;18.50;39.50;;;;;;5026130;28;20226;-67
2022/01/11 03:53:56;;;;;;;3.70;3.50;;;18.50;39.50;;;;;;5018983;28;20588;-67
2022/01/11 03:56:21;;;;;;;3.30;3.10;;;18.50;39.50;;;;;;5022780;28;20232;-67
2022/01/11 03:58:49;;;;;;;3.97;3.57;;;18.50;39.50;;;;;;5023983;28;20449;-67
2022/01/11 04:01:15;;;;;;;3.60;3.40;;;18.50;39.40;;;;;;5018681;28;20254;-67
2022/01/11 04:03:41;;;;;;;3.67;3.40;;;18.50;39.40;;;;;;5019813;28;20461;-67
2022/01/11 04:06:06;;;;;;;3.73;3.43;;;18.50;39.40;;;;;;5020985;28;20478;-68
2022/01/11 04:08:32;;;;;;;3.83;3.63;;;18.50;39.40;;;;;;5017714;28;20231;-68
2022/01/11 04:10:57;;;;;;;3.53;3.33;;;18.50;39.40;;;;;;5025432;28;20236;-67
2022/01/11 04:13:23;;;;;;;3.27;3.07;;;18.50;39.40;;;;;;5018903;28;20220;-67
2022/01/11 04:15:49;;;;;;;3.33;3.13;;;18.50;39.40;;;;;;5020713;28;20219;-67
2022/01/11 04:18:15;;;;;;;3.90;3.70;;;18.50;39.40;;;;;;5019540;28;20234;-67
2022/01/11 04:20:40;;;;;;;3.43;3.23;;;18.50;40.10;;;;;;5015786;28;20576;-67
2022/01/11 04:23:09;;;;;;;3.60;3.40;;;18.50;39.40;;;;;;5021379;28;20222;-68
2022/01/11 04:25:35;;;;;;;3.73;3.53;;;18.50;39.40;;;;;;5017574;28;20565;-68
2022/01/11 04:28:01;;;;;;;3.70;3.50;;;18.50;39.40;;;;;;5024059;28;20534;-68
2022/01/11 04:30:27;;;;;;;3.93;3.63;;;18.50;39.40;;;;;;5023920;28;20310;-68
2022/01/11 04:32:53;;;;;;;3.73;3.53;;;18.50;40.20;;;;;;5021074;28;20220;-67
2022/01/11 04:35:18;;;;;;;4.20;4.00;;;18.50;39.40;;;;;;5019058;28;20599;-68
2022/01/11 04:37:45;;;;;;;4.33;4.03;;;18.50;39.40;;;;;;5018216;28;20423;-67
2022/01/11 04:40:11;;;;;;;3.70;3.50;;;18.50;39.40;;;;;;5018024;28;20220;-68
2022/01/11 04:42:37;;;;;;;3.33;3.13;;;18.50;39.60;;;;;;5024694;28;20453;-68
2022/01/11 04:45:03;;;;;;;3.60;3.40;;;18.50;39.40;;;;;;5020659;28;20921;-68
2022/01/11 04:47:29;;;;;;;3.97;3.77;;;18.50;39.30;;;;;;5022140;28;20681;-67
2022/01/11 04:49:55;;;;;;;4.37;4.07;;;18.50;39.40;;;;;;5019015;28;20488;-69
2022/01/11 04:52:20;;;;;;;3.90;3.70;;;18.50;39.40;;;;;;5019937;28;20242;-68
2022/01/11 04:54:46;;;;;;;3.90;3.60;;;18.50;39.40;;;;;;5018935;28;20247;-67
2022/01/11 04:57:11;;;;;;;3.60;3.40;;;18.50;39.40;;;;;;5019979;28;20672;-68
2022/01/11 04:59:37;;;;;;;4.20;3.90;;;18.50;39.40;;;;;;5017831;28;20346;-68
2022/01/11 05:02:03;;;;;;;4.03;3.83;;;18.50;39.40;;;;;;5017184;28;20211;-68
2022/01/11 05:04:28;;;;;;;3.97;3.77;;;18.50;39.40;;;;;;5014740;28;20656;-68
2022/01/11 05:06:55;;;;;;;4.30;4.10;;;18.50;40.10;;;;;;5020786;28;20211;-68
2022/01/11 05:09:21;;;;;;;3.87;3.60;;;18.50;39.40;;;;;;5020216;28;20604;-69
2022/01/11 05:11:47;;;;;;;4.10;3.80;;;18.50;39.30;;;;;;5050912;28;20808;-68
2022/01/11 05:14:13;;;;;;;3.43;3.23;;;18.50;39.30;;;;;;5020024;28;20444;-69
2022/01/11 05:16:38;;;;;;;4.33;3.73;;;18.50;39.30;;;;;;5020285;28;20229;-68
2022/01/11 05:19:06;;;;;;;4.07;3.77;;;18.50;39.30;;;;;;5020451;28;20223;-71
2022/01/11 05:21:32;;;;;;;3.80;3.60;;;18.50;39.40;;;;;;5019459;28;20285;-68
2022/01/11 05:23:58;;;;;;;3.90;3.70;;;18.50;39.30;;;;;;5016208;28;20424;-68
2022/01/11 05:26:23;;;;;;;3.90;3.70;;;18.50;39.30;;;;;;5015024;28;20239;-68
2022/01/11 05:28:49;;;;;;;4.40;4.10;;;18.50;39.30;;;;;;5020134;28;20577;-68
2022/01/11 05:31:14;;;;;;;3.90;3.70;;;18.60;39.30;;;;;;5020282;28;20302;-69
2022/01/11 05:33:40;;;;;;;3.70;3.50;;;18.60;39.30;;;;;;5019698;28;20738;-72
2022/01/11 05:36:06;;;;;;;3.60;3.40;;;18.60;39.30;;;;;;5020053;28;20585;-70
2022/01/11 05:38:32;;;;;;;4.63;4.33;;;18.60;39.30;;;;;;5020804;28;20235;-67
2022/01/11 05:40:57;;;;;;;3.60;3.40;;;18.60;39.30;;;;;;5018148;28;20266;-67
2022/01/11 05:43:23;;;;;;;3.53;3.30;;;18.60;39.30;;;;;;5019772;28;20630;-69
2022/01/11 05:45:49;;;;;;;4.03;3.83;;;18.60;39.20;;;;;;5020616;28;20310;-71
2022/01/11 05:48:14;;;;;;;3.57;3.37;;;18.60;39.20;;;;;;5022825;28;20445;-71
2022/01/11 05:50:43;;;;;;;3.50;3.30;;;18.60;39.20;;;;;;5019169;28;20591;-68
2022/01/11 05:53:08;;;;;;;4.70;4.30;;;18.60;39.20;;;;;;5022343;28;20292;-67
2022/01/11 05:55:34;;;;;;;7.47;4.13;;;18.60;39.10;;;;;;5019015;28;20927;-66
2022/01/11 05:58:00;;;;;;;5.27;4.20;;;18.60;39.10;;;;;;5018063;28;20298;-66
2022/01/11 06:00:25;;;;;;;3.67;3.47;;;18.60;39.10;;;;;;5017642;28;20231;-66
2022/01/11 06:02:54;;;;;;;4.20;4.00;;;18.60;39.10;;;;;;5018905;28;20739;-65
2022/01/11 06:05:21;;;;;;;5.23;4.93;;;18.60;39.10;;;;;;5019970;28;20660;-66
2022/01/11 06:07:46;;;;;;;4.20;3.87;;;18.50;39.00;;;;;;5022832;28;20419;-66
2022/01/11 06:10:14;;;;;;;4.40;4.10;;;18.50;38.90;;;;;;5019648;28;20467;-66
2022/01/11 06:12:40;;;;;;;4.23;3.93;;;18.50;38.80;;;;;;5021796;28;20230;-65
2022/01/11 06:15:06;;;;;;;4.30;4.03;;;18.50;38.80;;;;;;5019671;28;20514;-66
2022/01/11 06:17:32;;;;;;;3.40;3.20;;;18.50;38.70;;;;;;5015631;28;20536;-67
2022/01/11 06:19:57;;;;;;;4.70;4.30;;;18.50;38.70;;;;;;5022378;28;20515;-67
2022/01/11 06:22:24;;;;;;;4.00;3.70;;;18.50;38.70;;;;;;5019658;28;20231;-72
2022/01/11 06:24:51;;;;;;;4.37;4.07;;;18.50;38.60;;;;;;5019984;28;20222;-68
2022/01/11 06:27:17;;;;;;;4.30;4.00;;;18.50;38.60;;;;;;5019158;28;20496;-67
2022/01/11 06:29:42;;;;;;;3.90;3.63;;;18.50;38.60;;;;;;5021375;28;20492;-67
2022/01/11 06:32:08;;;;;;;4.10;3.80;;;18.50;38.50;;;;;;5017298;28;20227;-67
2022/01/11 06:34:34;;;;;;;3.73;3.40;;;18.40;38.40;;;;;;5022973;28;20243;-69
2022/01/11 06:37:00;;;;;;;3.70;3.50;;;18.50;38.40;;;;;;5020315;28;20226;-69
2022/01/11 06:39:26;;;;;;;4.10;3.80;;;18.40;38.40;;;;;;5026166;28;20684;-67
2022/01/11 06:41:52;;;;;;;4.20;3.90;;;18.40;38.30;;;;;;5025391;28;20457;-71
2022/01/11 06:44:18;;;;;;;5.77;3.80;;;18.40;38.30;;;;;;5023798;28;20897;-70
2022/01/11 06:46:44;;;;;;;3.70;3.50;;;18.40;38.30;;;;;;5021260;28;20745;-70
2022/01/11 06:49:09;;;;;;;4.13;3.50;;;18.40;38.20;;;;;;5021240;28;20646;-70
2022/01/11 06:51:35;;;;;;;9.07;3.53;;;18.40;38.20;;;;;;5023447;28;20239;-69
2022/01/11 06:54:01;;;;;;;4.33;4.07;;;18.40;38.20;;;;;;5020144;28;20700;-69
2022/01/11 06:56:27;;;;;;;3.23;3.03;;;18.40;38.20;;;;;;5024214;28;20548;-68
2022/01/11 06:58:53;;;;;;;3.70;3.50;;;18.40;38.20;;;;;;5023543;28;20475;-68
2022/01/11 07:01:18;;;;;;;3.63;3.43;;;18.40;38.10;;;;;;5025839;28;20219;-67
2022/01/11 07:03:44;;;;;;;4.47;4.17;;;18.40;38.10;;;;;;5021486;28;20580;-68
2022/01/11 07:06:10;;;;;;;4.67;4.27;;;18.40;38.10;;;;;;5019783;28;20634;-67
2022/01/11 07:08:35;;;;;;;3.87;3.57;;;18.40;38.10;;;;;;5021453;28;20231;-67
2022/01/11 07:11:01;;;;;;;5.60;4.30;;;18.40;37.90;;;;;;5022458;28;20250;-67
2022/01/11 07:13:26;;;;;;;4.00;3.80;;;18.40;37.90;;;;;;5025420;28;20278;-67
2022/01/11 07:15:52;;;;;;;4.23;3.83;;;18.40;38.00;;;;;;5021172;28;20230;-67
2022/01/11 07:18:18;;;;;;;3.67;3.37;;;18.40;38.00;;;;;;5023140;28;20230;-67
2022/01/11 07:20:43;;;;;;;4.70;4.30;;;18.40;37.90;;;;;;5018305;28;20216;-67
2022/01/11 07:23:11;;;;;;;4.00;3.67;;;18.40;37.80;;;;;;5026711;28;20326;-67
2022/01/11 07:25:37;;;;;;;4.00;3.70;;;18.40;37.80;;;;;;5026511;28;20274;-67
2022/01/11 07:28:03;;;;;;;4.53;4.23;;;18.40;37.80;;;;;;5022981;28;20443;-67
2022/01/11 07:30:29;;;;;;;4.03;3.70;;;18.40;37.80;;;;;;5021360;28;20234;-67
2022/01/11 07:32:55;;;;;;;3.90;3.70;;;18.40;37.80;;;;;;5019841;28;20787;-66
2022/01/11 07:35:23;;;;;;;3.73;3.53;;;18.40;38.70;;;;;;5022648;28;20223;-66
2022/01/11 07:37:50;;;;;;;4.13;3.87;;;18.40;37.80;;;;;;5019213;28;20301;-67
2022/01/11 07:40:15;;;;;;;4.10;3.80;;;18.40;37.80;;;;;;5018232;28;20453;-67
2022/01/11 07:42:41;;;;;;;4.20;3.90;;;18.30;37.70;;;;;;5022340;28;20428;-71
2022/01/11 07:45:07;;;;;;;5.00;3.70;;;18.30;37.70;;;;;;5021875;28;20219;-67
2022/01/11 07:47:33;;;;;;;4.40;4.10;;;18.40;37.80;;;;;;5021145;28;20219;-67
2022/01/11 07:49:59;;;;;;;4.37;4.17;;;18.30;37.70;;;;;;5021196;28;20484;-67
2022/01/11 07:52:25;;;;;;;3.90;3.70;;;18.30;37.70;;;;;;5021267;28;20259;-67
2022/01/11 07:54:52;;;;;;;4.33;4.13;;;18.30;37.70;;;;;;5018215;28;20445;-67
2022/01/11 07:57:18;;;;;;;3.97;3.77;;;18.30;37.70;;;;;;5052521;28;20224;-67
2022/01/11 07:59:44;;;;;;;6.90;4.07;;;18.30;37.70;;;;;;5022621;28;20449;-68
2022/01/11 08:02:09;;;;;;;3.57;3.37;;;18.30;37.70;;;;;;5023361;28;20215;-69
2022/01/11 08:04:35;;;;;;;4.53;4.23;;;18.30;37.70;;;;;;5021015;28;20219;-68
2022/01/11 08:07:02;;;;;;;3.97;3.77;;;18.30;37.70;;;;;;5020273;28;20212;-68
2022/01/11 08:09:28;;;;;;;4.27;3.90;;;18.30;37.70;;;;;;5018126;28;20262;-67
2022/01/11 08:11:58;;;;;;;4.00;3.77;;;18.30;37.80;;;;;;5021407;28;20453;-67
2022/01/11 08:14:25;;;;;;;3.67;3.47;;;18.30;37.70;;;;;;5016783;28;20569;-66
2022/01/11 08:16:51;;;;;;;4.07;3.87;;;18.30;37.70;;;;;;5024384;28;20512;-66
2022/01/11 08:19:17;;;;;;;4.80;4.40;;;18.30;38.50;;;;;;5022272;28;20483;-67
2022/01/11 08:21:43;;;;;;;3.50;3.20;;;18.30;37.80;;;;;;5026662;28;20739;-67
2022/01/11 08:24:08;;;;;;;5.53;3.60;;;18.30;38.50;;;;;;5018302;28;20531;-66
2022/01/11 08:26:34;;;;;;;3.40;3.20;;;18.30;37.80;;;;;;5018021;28;20562;-67
2022/01/11 08:29:00;;;;;;;4.53;4.13;;;18.30;37.70;;;;;;5018530;28;20222;-67
2022/01/11 08:31:26;;;;;;;4.30;4.00;;;18.30;37.70;;;;;;5021071;28;20509;-66
2022/01/11 08:33:51;;;;;;;3.23;3.03;;;18.30;37.70;;;;;;5019005;28;20709;-65
2022/01/11 08:36:17;;;;;;;3.80;3.50;;;18.30;37.70;;;;;;5020944;28;20227;-66
2022/01/11 08:38:44;;;;;;;3.70;3.47;;;18.30;37.70;;;;;;5024566;28;20223;-66
2022/01/11 08:41:10;;;;;;;4.10;3.80;;;18.30;37.70;;;;;;5021574;28;20294;-66
2022/01/11 08:43:35;;;;;;;3.87;3.57;;;18.30;37.70;;;;;;5018319;28;20452;-65
2022/01/11 08:46:04;;;;;;;4.40;4.10;;;18.30;37.70;;;;;;5019823;28;20537;-66
2022/01/11 08:48:31;;;;;;;3.50;3.27;;;18.30;37.70;;;;;;5019601;28;20242;-66
2022/01/11 08:50:57;;;;;;;4.27;3.53;;;18.30;37.70;;;;;;5019141;28;20460;-66
2022/01/11 08:53:23;;;;;;;3.90;3.60;;;18.30;37.70;;;;;;5024229;28;20427;-66
2022/01/11 08:55:52;;;;;;;4.07;3.77;;;18.30;37.70;;;;;;5019381;28;20682;-66
2022/01/11 08:58:20;;;;;;;3.50;3.20;;;18.30;37.80;;;;;;5021250;28;20280;-65
2022/01/11 09:00:46;;;;;;;3.67;3.47;;;18.30;37.70;;;;;;5053545;28;20456;-67
2022/01/11 09:03:12;;;;;;;3.83;3.63;;;18.30;37.70;;;;;;5021379;28;20516;-68
2022/01/11 09:05:38;;;;;;;3.33;3.13;;;18.30;37.70;;;;;;5020775;28;20528;-67
2022/01/11 09:08:04;;;;;;;3.50;3.30;;;18.30;37.70;;;;;;5016240;28;20243;-67
2022/01/11 09:10:30;;;;;;;3.63;3.30;;;18.30;37.70;;;;;;5054304;28;20593;-66
2022/01/11 09:12:55;;;;;;;4.03;3.80;;;18.30;37.70;;;;;;5021611;28;20515;-66
2022/01/11 09:15:22;;;;;;;3.33;3.13;;;18.30;38.50;;;;;;5013977;28;20734;-66
2022/01/11 09:17:47;;;;;;;3.83;3.53;;;18.30;37.70;;;;;;5021740;28;20219;-66
2022/01/11 09:20:16;;;;;;;3.10;2.90;;;18.30;37.70;;;;;;5019034;28;20423;-66
2022/01/11 09:22:42;;;;;;;4.37;3.97;;;18.30;37.70;;;;;;5021560;28;20465;-66
2022/01/11 09:25:08;;;;;;;3.80;3.50;;;18.20;37.60;;;;;;5019028;28;20435;-66
2022/01/11 09:27:34;;;;;;;3.27;3.07;;;18.30;37.70;;;;;;5021326;28;20723;-66
2022/01/11 09:30:00;;;;;;;4.40;4.10;;;18.30;37.70;;;;;;5020274;28;20964;-69
2022/01/11 09:32:27;;;;;;;4.30;3.90;;;18.20;37.60;;;;;;5015458;28;20314;-69
2022/01/11 09:34:53;;;;;;;3.40;3.20;;;18.30;37.70;;;;;;5019662;28;20518;-67
2022/01/11 09:37:19;;;;;;;3.90;3.70;;;18.20;37.60;;;;;;5021845;28;20251;-67
2022/01/11 09:39:44;;;;;;;4.00;3.80;;;18.30;37.70;;;;;;5021508;28;20219;-66
2022/01/11 09:42:11;;;;;;;4.00;3.77;;;18.30;37.70;;;;;;5021185;28;20443;-65
2022/01/11 09:44:40;;;;;;;3.73;3.50;;;18.20;37.60;;;;;;5019316;28;20222;-67
2022/01/11 09:47:08;;;;;;;4.57;4.27;;;18.20;37.60;;;;;;5046853;28;20412;-67
2022/01/11 09:49:33;;;;;;;3.50;3.30;;;18.20;37.60;;;;;;5016594;28;20478;-67
2022/01/11 09:52:02;;;;;;;3.43;3.23;;;18.20;37.60;;;;;;5014916;28;20511;-66
2022/01/11 09:54:27;;;;;;;4.47;4.07;;;18.20;37.60;;;;;;5020502;28;20306;-66
2022/01/11 09:56:53;;;;;;;3.27;3.07;;;18.30;37.70;;;;;;5020626;28;20530;-65
2022/01/11 09:59:19;;;;;;;4.00;3.70;;;18.20;37.60;;;;;;5022221;28;20224;-65
2022/01/11 10:01:44;;;;;;;3.67;3.47;;;18.20;37.60;;;;;;5017979;28;20290;-65
2022/01/11 10:04:17;;;;;;;3.57;3.37;;;18.20;37.60;;;;;;5019750;28;20517;-66
2022/01/11 10:06:51;;;;;;;3.67;3.47;;;18.20;37.60;;;;;;5018948;28;20230;-65
2022/01/11 10:09:20;;;;;;;3.47;3.27;;;18.20;37.60;;;;;;5017845;28;20506;-65
2022/01/11 10:11:49;;;;;;;4.50;4.20;;;18.20;37.60;;;;;;5019394;28;20429;-65
2022/01/11 10:14:31;;;;;;;3.70;3.50;;;18.20;37.60;;;;;;5020898;28;20966;-65
2022/01/11 10:17:04;;;;;;;3.80;3.50;;;18.20;37.60;;;;;;5021415;28;20568;-65
2022/01/11 10:19:30;;;;;;;4.47;4.17;;;18.20;37.60;;;;;;5019826;28;20428;-65
2022/01/11 10:21:55;;;;;;;4.30;4.00;;;18.20;37.60;;;;;;5020074;28;20810;-65
2022/01/11 10:24:41;;;;;;;3.50;3.30;;;18.20;37.60;;;;;;5021365;28;20449;-64
2022/01/11 10:27:25;;;;;;;3.53;3.33;;;18.20;37.60;;;;;;5019439;28;20322;-65
2022/01/11 10:29:52;;;;;;;3.40;3.20;;;18.20;37.60;;;;;;5016518;28;20831;-65
2022/01/11 10:32:30;;;;;;;3.43;3.23;;;18.20;37.60;;;;;;5025295;28;20847;-65
2022/01/11 10:35:31;;;;;;;3.63;3.43;;;18.20;37.60;;;;;;5022042;28;20440;-64
2022/01/11 10:38:00;;;;;;;3.80;3.50;;;18.20;37.60;;;;;;5019953;28;20555;-65
2022/01/11 10:40:32;;;;;;;3.53;3.33;;;18.20;37.60;;;;;;5019571;28;20435;-65
2022/01/11 10:43:13;;;;;;;3.50;3.30;;;18.20;37.60;;;;;;5020430;28;20925;-65
2022/01/11 10:45:42;;;;;;;3.77;3.57;;;18.20;37.60;;;;;;5024556;28;20458;-65
2022/01/11 10:48:13;;;;;;;3.00;2.80;;;18.20;37.60;;;;;;5022100;28;20422;-65
2022/01/11 10:50:45;;;;;;;3.90;3.60;;;18.20;37.60;;;;;;5026168;28;20473;-64
2022/01/11 10:53:21;;;;;;;3.10;2.90;;;18.20;37.60;;;;;;5022595;28;20464;-65
2022/01/11 10:55:58;;;;;;;4.10;3.80;;;18.20;37.60;;;;;;5021553;28;20456;-65
2022/01/11 10:58:25;;;;;;;3.80;3.50;;;18.20;37.60;;;;;;5021415;28;20543;-65
2022/01/11 11:00:53;;;;;;;3.70;3.40;;;18.20;37.60;;;;;;5024716;28;20441;-65
2022/01/11 11:03:21;;;;;;;4.20;3.90;;;18.20;37.60;;;;;;5021552;28;20427;-67
2022/01/11 11:05:54;;;;;;;4.10;3.80;;;18.20;37.70;;;;;;5020219;28;20954;-65
2022/01/11 11:08:26;;;;;;;3.93;3.63;;;18.20;37.60;;;;;;5021129;28;20454;-65
2022/01/11 11:11:00;;;;;;;4.10;3.80;;;18.20;37.60;;;;;;5023541;28;20559;-65
2022/01/11 11:13:30;;;;;;;4.00;3.70;;;18.20;37.60;;;;;;5021159;28;20461;-65
2022/01/11 11:16:14;;;;;;;4.07;3.80;;;18.20;37.60;;;;;;5022374;28;20472;-65
2022/01/11 11:18:57;;;;;;;3.47;3.27;;;18.20;37.60;;;;;;5022317;28;20444;-65
2022/01/11 11:21:33;;;;;;;3.80;3.50;;;18.20;37.60;;;;;;5021914;28;20835;-65
2022/01/11 11:24:01;;;;;;;4.20;4.00;;;18.20;37.60;;;;;;5022126;28;20447;-65
2022/01/11 11:26:30;;;;;;;3.67;3.37;;;18.20;37.60;;;;;;5021293;28;20469;-65
2022/01/11 11:28:56;;;;;;;4.80;3.80;;;18.20;37.60;;;;;;5016532;28;21001;-65
2022/01/11 11:31:22;;;;;;;3.90;3.60;;;18.20;37.60;;;;;;5023100;28;20566;-65
2022/01/11 11:33:48;;;;;;;3.63;3.43;;;18.20;37.60;;;;;;5023984;28;20212;-66
2022/01/11 11:36:16;;;;;;;3.20;3.00;;;18.20;37.60;;;;;;5023063;28;20220;-67
2022/01/11 11:38:54;;;;;;;3.83;3.53;;;18.20;37.60;;;;;;5022971;28;20444;-67
2022/01/11 11:41:21;;;;;;;3.67;3.47;;;18.20;37.60;;;;;;5020794;28;20461;-66
2022/01/11 11:44:13;;;;;;;4.07;3.87;;;18.20;37.60;;;;;;5015943;28;20435;-66
2022/01/11 11:46:51;;;;;;;4.20;3.87;;;18.20;37.60;;;;;;5025314;28;21003;-66
2022/01/11 11:49:46;;;;;;;3.70;3.50;;;18.20;37.60;;;;;;5018427;28;20461;-66
2022/01/11 11:52:44;;;;;;;4.00;3.80;;;18.20;37.60;;;;;;5024788;28;20450;-65
2022/01/11 11:55:30;;;;;;;3.93;3.63;;;18.20;37.60;;;;;;5051181;28;20447;-65
2022/01/11 11:58:01;;;;;;;3.53;3.33;;;18.20;37.60;;;;;;5018144;28;20449;-65
2022/01/11 12:00:33;;;;;;;3.70;3.50;;;18.20;37.60;;;;;;5019629;28;20475;-65
2022/01/11 12:03:22;;;;;;;3.93;3.70;;;18.20;37.60;;;;;;5020514;28;20842;-65
2022/01/11 12:05:49;;;;;;;4.00;3.70;;;18.20;37.60;;;;;;5016738;28;20451;-65
2022/01/11 12:08:34;;;;;;;4.20;3.90;;;18.10;37.70;;;;;;5024329;28;20436;-65
2022/01/11 12:11:10;;;;;;;4.13;3.83;;;18.10;37.60;;;;;;5021495;28;20468;-66
2022/01/11 12:13:39;;;;;;;3.30;3.10;;;18.10;37.60;;;;;;5018276;28;20498;-66
2022/01/11 12:16:25;;;;;;;3.80;3.60;;;18.10;37.60;;;;;;5019474;28;20423;-65
2022/01/11 12:18:52;;;;;;;4.30;4.00;;;18.20;37.60;;;;;;5021673;28;20489;-65
2022/01/11 12:21:18;;;;;;;3.30;3.10;;;18.10;37.60;;;;;;5018933;28;20439;-66
2022/01/11 12:23:44;;;;;;;3.90;3.70;;;18.10;37.60;;;;;;5022460;28;20567;-65
2022/01/11 12:26:19;;;;;;;4.20;3.90;;;18.10;37.60;;;;;;5023812;28;20247;-65
2022/01/11 12:29:07;;;;;;;3.60;3.30;;;18.10;37.60;;;;;;5023334;28;20467;-65
2022/01/11 12:31:59;;;;;;;4.43;4.13;;;18.10;37.60;;;;;;5014324;28;20472;-65
2022/01/11 12:34:47;;;;;;;3.60;3.40;;;18.10;37.60;;;;;;5018827;28;20967;-65
2022/01/11 12:37:44;;;;;;;4.17;3.87;;;18.10;37.60;;;;;;5018898;28;20476;-65
2022/01/11 12:40:25;;;;;;;4.00;3.80;;;18.10;37.60;;;;;;5015723;28;20443;-65
2022/01/11 12:42:54;;;;;;;4.10;3.90;;;18.10;37.60;;;;;;5022593;28;20813;-66
2022/01/11 12:45:53;;;;;;;4.27;3.97;;;18.10;37.70;;;;;;5022200;28;21008;-65
2022/01/11 12:48:50;;;;;;;4.43;4.13;;;18.10;37.70;;;;;;5021679;28;20439;-66
2022/01/11 12:51:47;;;;;;;4.07;3.77;;;18.10;37.60;;;;;;5023626;28;21028;-66
2022/01/11 12:54:30;;;;;;;4.20;4.00;;;18.10;37.60;;;;;;5018590;28;20769;-66
2022/01/11 12:57:05;;;;;;;3.70;3.50;;;18.10;37.70;;;;;;5019754;28;20469;-65